Time;durP1;ratioP1;P1;durP2;ratioP2;P2;SDS_P1;SDS_P2;PMS_P1;PMS_P2;Temp;Humidity;BMP_temperature;BMP_pressure;BME280_temperature;BME280_humidity;BME280_pressure;Samples;Min_cycle;Max_cycle;Signal;HPM_P1;HPM_P2
2022/11/11 00:01:10;;;;;;;90.03;26.03;;;;;;;;;;702643;198;1018818;-73
2022/11/11 00:03:36;;;;;;;93.60;27.73;;;;;;;;;;717120;193;923056;-73
2022/11/11 00:06:02;;;;;;;121.28;31.27;;;;;;;;;;732827;191;817027;-72
2022/11/11 00:08:28;;;;;;;111.50;33.67;;;;;;;;;;719067;192;1124371;-72
2022/11/11 00:10:54;;;;;;;165.43;33.90;;;;;;;;;;732798;189;916206;-74
2022/11/11 00:13:20;;;;;;;148.30;34.67;;;;;;;;;;733753;188;932979;-73
2022/11/11 00:15:46;;;;;;;165.13;32.20;;;;;;;;;;737551;190;906079;-73
2022/11/11 00:25:50;;;;;;;237.15;36.90;;;;;;;;;;744075;188;919012;-74
2022/11/11 00:28:16;;;;;;;326.97;42.17;;;;;;;;;;726352;191;916491;-73
2022/11/11 00:30:42;;;;;;;185.37;33.80;;;;;;;;;;728555;191;918632;-74
2022/11/11 00:33:08;;;;;;;248.63;38.93;;;;;;;;;;732767;191;918530;-74
2022/11/11 00:38:05;;;;;;;235.23;44.47;;;;;;;;;;735560;190;918153;-74
2022/11/11 00:40:31;;;;;;;192.20;38.30;;;;;;;;;;724656;190;917772;-74
2022/11/11 00:42:57;;;;;;;91.47;36.57;;;;;;;;;;741817;184;815058;-72
2022/11/11 00:45:23;;;;;;;87.17;34.27;;;;;;;;;;731532;190;918021;-72
2022/11/11 00:52:53;;;;;;;183.87;37.90;;;;;;;;;;740973;189;918676;-74
2022/11/11 00:55:18;;;;;;;112.17;35.73;;;;;;;;;;727425;188;896613;-74
2022/11/11 00:57:44;;;;;;;185.87;36.80;;;;;;;;;;720518;191;1019504;-73
2022/11/11 01:00:11;;;;;;;187.67;36.23;;;;;;;;;;729827;191;714964;-73
2022/11/11 01:02:37;;;;;;;339.60;45.37;;;;;;;;;;726718;191;910181;-73
2022/11/11 01:05:03;;;;;;;263.57;40.00;;;;;;;;;;730978;190;921876;-74
2022/11/11 01:07:28;;;;;;;217.37;35.43;;;;;;;;;;734221;190;914011;-73
2022/11/11 01:09:54;;;;;;;266.03;38.30;;;;;;;;;;738807;190;918532;-73
2022/11/11 01:12:20;;;;;;;264.30;36.43;;;;;;;;;;736130;190;919077;-72
2022/11/11 01:14:46;;;;;;;254.18;33.85;;;;;;;;;;733737;189;918499;-73
2022/11/11 01:17:12;;;;;;;184.73;33.83;;;;;;;;;;740302;188;919282;-73
2022/11/11 01:19:38;;;;;;;246.60;32.50;;;;;;;;;;731986;191;910487;-73
2022/11/11 01:22:04;;;;;;;246.67;34.40;;;;;;;;;;721252;190;1016081;-74
2022/11/11 01:24:30;;;;;;;187.17;31.87;;;;;;;;;;739306;187;912335;-73
2022/11/11 01:26:55;;;;;;;210.67;30.83;;;;;;;;;;729854;190;919228;-74
2022/11/11 01:29:21;;;;;;;241.40;33.47;;;;;;;;;;733973;188;911473;-74
2022/11/11 01:31:47;;;;;;;218.70;30.83;;;;;;;;;;725492;191;919047;-72
2022/11/11 01:34:13;;;;;;;173.38;30.62;;;;;;;;;;728875;190;815732;-73
2022/11/11 01:36:39;;;;;;;193.80;31.50;;;;;;;;;;733172;190;947368;-73
2022/11/11 01:39:05;;;;;;;139.37;30.90;;;;;;;;;;737090;191;940389;-73
2022/11/11 01:41:31;;;;;;;166.87;28.77;;;;;;;;;;737557;191;817866;-72
2022/11/11 01:43:57;;;;;;;205.67;30.97;;;;;;;;;;734815;188;914415;-74
2022/11/11 01:46:23;;;;;;;194.97;31.37;;;;;;;;;;744312;190;940028;-74
2022/11/11 01:51:22;;;;;;;141.30;26.90;;;;;;;;;;740108;191;917164;-72
2022/11/11 01:53:48;;;;;;;114.97;25.90;;;;;;;;;;732730;191;818492;-74
2022/11/11 01:56:14;;;;;;;99.10;26.63;;;;;;;;;;724474;191;918462;-73
2022/11/11 01:58:40;;;;;;;139.83;28.57;;;;;;;;;;741039;191;917914;-73
2022/11/11 02:01:06;;;;;;;213.93;31.07;;;;;;;;;;736038;189;924586;-74
2022/11/11 02:03:32;;;;;;;355.95;36.72;;;;;;;;;;731596;190;918459;-73
2022/11/11 02:05:58;;;;;;;289.73;37.47;;;;;;;;;;732776;191;944977;-73
2022/11/11 02:10:56;;;;;;;396.13;42.47;;;;;;;;;;734409;191;915931;-73
2022/11/11 02:15:54;;;;;;;421.63;40.27;;;;;;;;;;734121;191;916710;-72
2022/11/11 02:18:20;;;;;;;369.90;39.97;;;;;;;;;;735936;188;928917;-74
2022/11/11 02:20:46;;;;;;;356.63;40.50;;;;;;;;;;720564;190;1018952;-72
2022/11/11 02:23:18;;;;;;;264.30;36.97;;;;;;;;;;729710;191;912590;-72
2022/11/11 02:25:44;;;;;;;216.63;34.37;;;;;;;;;;740776;187;816252;-72
2022/11/11 02:28:10;;;;;;;300.17;37.70;;;;;;;;;;734777;188;918660;-73
2022/11/11 02:30:36;;;;;;;274.70;38.07;;;;;;;;;;734010;191;942307;-73
2022/11/11 02:33:02;;;;;;;332.73;40.20;;;;;;;;;;736852;190;915927;-73
2022/11/11 02:35:28;;;;;;;367.13;41.13;;;;;;;;;;729171;191;930669;-72
2022/11/11 02:37:54;;;;;;;339.73;41.10;;;;;;;;;;720707;190;927903;-73
2022/11/11 02:40:23;;;;;;;393.37;43.53;;;;;;;;;;731667;190;919284;-72
2022/11/11 02:42:49;;;;;;;302.33;41.37;;;;;;;;;;727472;191;930416;-74
2022/11/11 02:45:15;;;;;;;292.83;39.27;;;;;;;;;;731405;191;919545;-74
2022/11/11 02:47:41;;;;;;;386.33;40.20;;;;;;;;;;732550;190;930426;-74
2022/11/11 02:50:07;;;;;;;345.83;40.60;;;;;;;;;;738490;190;913870;-73
2022/11/11 02:52:33;;;;;;;349.83;37.43;;;;;;;;;;726568;190;942852;-73
2022/11/11 02:54:58;;;;;;;406.03;42.53;;;;;;;;;;729492;189;917622;-73
2022/11/11 02:57:24;;;;;;;452.23;44.07;;;;;;;;;;727849;190;1017829;-73
2022/11/11 02:59:50;;;;;;;371.80;41.37;;;;;;;;;;740288;188;915035;-73
2022/11/11 03:02:16;;;;;;;325.33;38.83;;;;;;;;;;730562;190;912785;-73
2022/11/11 03:04:42;;;;;;;342.85;36.05;;;;;;;;;;733832;188;942781;-73
2022/11/11 03:07:08;;;;;;;396.60;41.07;;;;;;;;;;735930;190;811712;-74
2022/11/11 03:09:34;;;;;;;220.10;31.20;;;;;;;;;;733005;190;922049;-73
2022/11/11 03:11:59;;;;;;;296.73;33.10;;;;;;;;;;731766;188;918856;-73
2022/11/11 03:14:25;;;;;;;307.60;35.57;;;;;;;;;;738805;189;892271;-73
2022/11/11 03:19:23;;;;;;;354.03;36.20;;;;;;;;;;732162;189;913895;-73
2022/11/11 03:21:49;;;;;;;349.17;36.77;;;;;;;;;;737546;189;916584;-73
2022/11/11 03:24:14;;;;;;;297.10;37.43;;;;;;;;;;737972;188;811758;-73
2022/11/11 03:26:40;;;;;;;297.60;32.90;;;;;;;;;;734062;190;972818;-73
2022/11/11 03:29:06;;;;;;;396.60;37.40;;;;;;;;;;742366;185;914058;-74
2022/11/11 03:31:32;;;;;;;195.33;31.07;;;;;;;;;;739088;184;1015840;-73
2022/11/11 03:34:16;;;;;;;91.63;24.25;;;;;;;;;;737164;188;906326;-73
2022/11/11 03:38:14;;;;;;;126.35;23.30;;;;;;;;;;725510;189;922244;-72
2022/11/11 03:38:50;;;;;;;61.30;21.40;;;;;;;;;;726016;190;888862;-73
2022/11/11 03:41:16;;;;;;;59.23;21.97;;;;;;;;;;709539;198;918427;-73
2022/11/11 03:43:42;;;;;;;66.30;22.10;;;;;;;;;;719696;192;919066;-73
2022/11/11 03:46:08;;;;;;;148.30;23.93;;;;;;;;;;713556;196;919376;-73
2022/11/11 03:48:33;;;;;;;85.73;20.60;;;;;;;;;;741060;188;918162;-73
2022/11/11 03:50:59;;;;;;;147.23;23.87;;;;;;;;;;739223;189;952387;-73
2022/11/11 03:53:25;;;;;;;146.00;23.20;;;;;;;;;;728124;191;917668;-73
2022/11/11 03:55:51;;;;;;;144.03;23.17;;;;;;;;;;740292;190;916131;-74
2022/11/11 03:58:17;;;;;;;81.60;20.97;;;;;;;;;;725294;190;918821;-73
2022/11/11 04:00:43;;;;;;;92.03;21.27;;;;;;;;;;722090;191;927100;-73
2022/11/11 04:10:44;;;;;;;209.60;25.37;;;;;;;;;;732295;190;915679;-72
2022/11/11 04:18:13;;;;;;;87.95;23.33;;;;;;;;;;732046;188;917739;-73
2022/11/11 04:23:11;;;;;;;135.33;23.93;;;;;;;;;;728796;189;919172;-73
2022/11/11 04:30:40;;;;;;;84.33;21.17;;;;;;;;;;733355;190;918869;-73
2022/11/11 04:33:06;;;;;;;107.03;23.17;;;;;;;;;;736151;189;916844;-72
2022/11/11 04:35:32;;;;;;;117.27;23.87;;;;;;;;;;738272;190;918832;-73
2022/11/11 04:41:02;;;;;;;97.63;21.70;;;;;;;;;;730540;191;902902;-72
2022/11/11 04:42:55;;;;;;;80.73;21.00;;;;;;;;;;729714;189;919520;-72
2022/11/11 04:45:27;;;;;;;80.27;20.80;;;;;;;;;;738038;187;26896;-73
2022/11/11 04:48:07;;;;;;;95.90;23.63;;;;;;;;;;731010;190;915309;-73
2022/11/11 04:50:33;;;;;;;68.40;19.85;;;;;;;;;;706630;197;918669;-73
2022/11/11 04:52:59;;;;;;;105.37;22.10;;;;;;;;;;717542;194;922056;-74
2022/11/11 04:57:56;;;;;;;150.43;22.70;;;;;;;;;;738809;189;910376;-73
2022/11/11 05:00:22;;;;;;;112.20;23.13;;;;;;;;;;729818;190;919299;-74
2022/11/11 05:05:20;;;;;;;99.00;21.50;;;;;;;;;;731643;187;919723;-74
2022/11/11 05:10:17;;;;;;;127.03;20.87;;;;;;;;;;729723;189;923812;-73
2022/11/11 05:12:43;;;;;;;179.00;23.77;;;;;;;;;;728859;190;919447;-74
2022/11/11 05:22:44;;;;;;;39.20;14.00;;;;;;;;;;736135;190;919339;-74
2022/11/11 05:27:41;;;;;;;55.43;15.93;;;;;;;;;;731068;190;912744;-74
2022/11/11 05:30:07;;;;;;;49.57;17.27;;;;;;;;;;734382;190;911753;-73
2022/11/11 05:32:33;;;;;;;37.87;13.77;;;;;;;;;;729248;190;908663;-74
2022/11/11 05:34:59;;;;;;;96.67;18.13;;;;;;;;;;742725;188;619088;-74
2022/11/11 05:37:25;;;;;;;29.43;13.10;;;;;;;;;;736441;190;621033;-74
2022/11/11 05:39:51;;;;;;;70.67;17.83;;;;;;;;;;731385;190;918402;-74
2022/11/11 05:42:16;;;;;;;36.67;13.17;;;;;;;;;;738685;190;623240;-74
2022/11/11 05:44:42;;;;;;;55.57;16.90;;;;;;;;;;741191;187;918906;-74
2022/11/11 05:47:08;;;;;;;46.37;15.60;;;;;;;;;;741628;188;728335;-75
2022/11/11 05:49:34;;;;;;;60.17;16.10;;;;;;;;;;733796;188;916496;-74
2022/11/11 05:52:00;;;;;;;56.90;16.13;;;;;;;;;;735003;189;813301;-73
2022/11/11 05:54:26;;;;;;;64.93;17.27;;;;;;;;;;734610;191;918754;-74
2022/11/11 05:56:52;;;;;;;40.63;14.50;;;;;;;;;;734234;190;918306;-74
2022/11/11 05:59:18;;;;;;;66.47;15.60;;;;;;;;;;735542;190;876026;-74
2022/11/11 06:01:44;;;;;;;199.10;23.70;;;;;;;;;;736923;189;850786;-75
2022/11/11 06:04:09;;;;;;;58.27;15.73;;;;;;;;;;729426;190;916889;-73
2022/11/11 06:06:35;;;;;;;99.17;17.60;;;;;;;;;;735475;190;918381;-74
2022/11/11 06:09:01;;;;;;;47.53;13.93;;;;;;;;;;733326;187;918750;-74
2022/11/11 06:11:27;;;;;;;65.63;15.07;;;;;;;;;;731534;191;919299;-75
2022/11/11 06:13:53;;;;;;;149.60;16.93;;;;;;;;;;738315;189;884908;-74
2022/11/11 06:16:19;;;;;;;102.27;18.93;;;;;;;;;;729887;190;922185;-75
2022/11/11 06:18:45;;;;;;;82.93;18.70;;;;;;;;;;733628;188;829991;-74
2022/11/11 06:21:11;;;;;;;31.75;15.20;;;;;;;;;;734053;191;1019241;-74
2022/11/11 06:23:36;;;;;;;38.57;14.93;;;;;;;;;;730130;190;935996;-74
2022/11/11 06:28:34;;;;;;;34.33;16.47;;;;;;;;;;730460;189;815379;-74
2022/11/11 06:31:00;;;;;;;58.27;18.30;;;;;;;;;;732847;191;883097;-75
2022/11/11 06:33:25;;;;;;;76.87;19.50;;;;;;;;;;735267;190;710137;-74
2022/11/11 06:35:51;;;;;;;54.70;16.03;;;;;;;;;;729499;190;816453;-75
2022/11/11 06:38:17;;;;;;;40.00;15.67;;;;;;;;;;727246;190;917990;-74
2022/11/11 06:40:43;;;;;;;55.83;17.17;;;;;;;;;;736587;187;908903;-75
2022/11/11 06:43:09;;;;;;;58.20;17.90;;;;;;;;;;734512;190;989997;-74
2022/11/11 06:45:35;;;;;;;47.53;15.13;;;;;;;;;;728792;191;814648;-74
2022/11/11 06:48:01;;;;;;;63.07;16.93;;;;;;;;;;732154;190;919107;-74
2022/11/11 06:50:28;;;;;;;70.47;16.83;;;;;;;;;;726695;190;920232;-75
2022/11/11 06:52:54;;;;;;;62.40;15.60;;;;;;;;;;731887;191;919974;-75
2022/11/11 06:55:20;;;;;;;70.07;19.00;;;;;;;;;;738283;187;919355;-74
2022/11/11 06:57:46;;;;;;;114.40;17.70;;;;;;;;;;737047;190;917716;-74
2022/11/11 07:00:12;;;;;;;103.00;19.50;;;;;;;;;;736807;189;712858;-74
2022/11/11 07:02:38;;;;;;;122.73;18.40;;;;;;;;;;735670;190;890828;-75
2022/11/11 07:05:04;;;;;;;32.93;14.60;;;;;;;;;;739060;187;917402;-74
2022/11/11 07:07:30;;;;;;;50.70;16.10;;;;;;;;;;732925;190;916138;-74
2022/11/11 07:09:55;;;;;;;40.10;15.60;;;;;;;;;;730445;188;911789;-74
2022/11/11 07:12:22;;;;;;;52.27;15.67;;;;;;;;;;739111;189;816797;-74
2022/11/11 07:14:48;;;;;;;35.97;13.40;;;;;;;;;;734627;191;826638;-74
2022/11/11 07:17:13;;;;;;;34.30;14.50;;;;;;;;;;734645;190;914211;-74
2022/11/11 07:19:39;;;;;;;25.13;13.80;;;;;;;;;;740381;190;816602;-74
2022/11/11 07:22:05;;;;;;;38.73;14.80;;;;;;;;;;733192;189;960395;-74
2022/11/11 07:24:31;;;;;;;44.07;15.17;;;;;;;;;;730989;191;817191;-73
2022/11/11 07:26:58;;;;;;;50.30;16.80;;;;;;;;;;731887;190;1127876;-74
2022/11/11 07:29:23;;;;;;;30.90;14.40;;;;;;;;;;738750;188;915994;-74
2022/11/11 07:31:50;;;;;;;39.47;16.53;;;;;;;;;;734057;190;917935;-73
2022/11/11 07:34:14;;;;;;;91.83;20.60;;;;;;;;;;725993;190;914299;-75
2022/11/11 07:36:40;;;;;;;55.90;15.23;;;;;;;;;;736534;189;812770;-75
2022/11/11 07:39:06;;;;;;;31.80;13.90;;;;;;;;;;725494;190;919806;-75
2022/11/11 07:41:32;;;;;;;66.83;19.03;;;;;;;;;;728284;190;627002;-74
2022/11/11 07:43:58;;;;;;;28.03;15.00;;;;;;;;;;736933;190;620978;-74
2022/11/11 07:46:24;;;;;;;30.42;14.85;;;;;;;;;;731168;190;814661;-75
2022/11/11 07:48:49;;;;;;;27.60;16.07;;;;;;;;;;725437;191;958474;-74
2022/11/11 07:51:16;;;;;;;18.48;11.23;;;;;;;;;;737512;190;817974;-74
2022/11/11 07:53:42;;;;;;;24.07;13.13;;;;;;;;;;739243;188;765829;-75
2022/11/11 07:56:08;;;;;;;40.53;13.40;;;;;;;;;;735764;190;860538;-74
2022/11/11 07:58:34;;;;;;;50.87;16.17;;;;;;;;;;734395;189;938103;-75
2022/11/11 08:01:00;;;;;;;44.87;15.00;;;;;;;;;;741917;189;712745;-75
2022/11/11 08:03:25;;;;;;;36.50;14.03;;;;;;;;;;731336;190;771915;-75
2022/11/11 08:05:51;;;;;;;50.60;15.40;;;;;;;;;;734329;190;815821;-74
2022/11/11 08:08:19;;;;;;;36.10;16.23;;;;;;;;;;738265;190;714975;-74
2022/11/11 08:10:43;;;;;;;26.73;13.63;;;;;;;;;;731975;190;629911;-74
2022/11/11 08:15:41;;;;;;;49.00;17.90;;;;;;;;;;734700;189;1021252;-74
2022/11/11 08:18:06;;;;;;;35.50;14.63;;;;;;;;;;737287;189;1133293;-74
2022/11/11 08:20:32;;;;;;;38.07;14.67;;;;;;;;;;741059;190;712649;-75
2022/11/11 08:22:58;;;;;;;48.33;16.87;;;;;;;;;;727615;190;821719;-75
2022/11/11 08:25:24;;;;;;;27.43;13.63;;;;;;;;;;724781;190;816171;-75
2022/11/11 08:27:56;;;;;;;41.03;15.40;;;;;;;;;;728964;191;815656;-75
2022/11/11 08:30:21;;;;;;;31.83;14.97;;;;;;;;;;734350;190;919380;-75
2022/11/11 08:32:47;;;;;;;24.20;14.50;;;;;;;;;;732390;190;885144;-75
2022/11/11 08:35:13;;;;;;;26.30;14.30;;;;;;;;;;735348;189;911372;-74
2022/11/11 08:37:39;;;;;;;22.13;12.87;;;;;;;;;;732740;189;918724;-74
2022/11/11 08:40:05;;;;;;;29.97;12.20;;;;;;;;;;735692;188;921226;-75
2022/11/11 08:42:31;;;;;;;18.30;12.15;;;;;;;;;;733412;190;916042;-75
2022/11/11 08:44:57;;;;;;;20.17;12.50;;;;;;;;;;729297;191;913267;-75
2022/11/11 08:47:23;;;;;;;23.67;13.67;;;;;;;;;;735678;190;811905;-75
2022/11/11 08:49:49;;;;;;;17.57;11.70;;;;;;;;;;736989;190;873901;-75
2022/11/11 08:52:15;;;;;;;21.47;13.20;;;;;;;;;;731278;190;916648;-75
2022/11/11 08:54:41;;;;;;;24.43;15.07;;;;;;;;;;724373;191;916388;-75
2022/11/11 08:57:06;;;;;;;23.60;15.27;;;;;;;;;;722097;191;915939;-74
2022/11/11 08:59:32;;;;;;;33.53;15.67;;;;;;;;;;734947;190;809756;-75
2022/11/11 09:01:58;;;;;;;30.33;14.57;;;;;;;;;;737429;190;634698;-74
2022/11/11 09:04:25;;;;;;;22.50;14.60;;;;;;;;;;731353;191;917360;-75
2022/11/11 09:06:51;;;;;;;19.33;13.50;;;;;;;;;;741192;190;816591;-76
2022/11/11 09:09:17;;;;;;;24.10;14.93;;;;;;;;;;729350;190;917292;-74
2022/11/11 09:11:44;;;;;;;24.00;13.82;;;;;;;;;;729930;189;929037;-74
2022/11/11 09:14:08;;;;;;;21.63;13.87;;;;;;;;;;736217;188;880342;-75
2022/11/11 09:16:34;;;;;;;21.47;12.97;;;;;;;;;;732148;190;921930;-74
2022/11/11 09:19:00;;;;;;;24.85;16.02;;;;;;;;;;738357;190;809148;-75
2022/11/11 09:21:26;;;;;;;32.03;16.10;;;;;;;;;;735239;190;918996;-76
2022/11/11 09:23:52;;;;;;;24.53;14.87;;;;;;;;;;733742;187;1021222;-73
2022/11/11 09:26:18;;;;;;;19.87;13.37;;;;;;;;;;743185;188;917713;-74
2022/11/11 09:28:44;;;;;;;23.10;13.50;;;;;;;;;;729673;190;918146;-75
2022/11/11 09:31:09;;;;;;;21.37;15.18;;;;;;;;;;724553;193;886937;-74
2022/11/11 09:33:35;;;;;;;23.73;13.47;;;;;;;;;;731857;190;912264;-75
2022/11/11 09:36:01;;;;;;;17.23;11.37;;;;;;;;;;729868;191;913723;-74
2022/11/11 09:38:27;;;;;;;20.03;12.20;;;;;;;;;;733196;190;916645;-75
2022/11/11 09:41:10;;;;;;;23.97;14.60;;;;;;;;;;729047;190;910435;-74
2022/11/11 09:43:41;;;;;;;28.42;15.38;;;;;;;;;;725634;189;916067;-75
2022/11/11 09:46:08;;;;;;;22.60;14.87;;;;;;;;;;735931;189;915831;-75
2022/11/11 09:48:37;;;;;;;24.90;14.40;;;;;;;;;;736859;188;812955;-75
2022/11/11 09:51:03;;;;;;;25.93;16.20;;;;;;;;;;737803;191;915845;-75
2022/11/11 09:53:29;;;;;;;20.70;14.03;;;;;;;;;;731150;191;916650;-74
2022/11/11 09:55:54;;;;;;;21.97;14.77;;;;;;;;;;723618;191;914546;-74
2022/11/11 09:58:21;;;;;;;26.57;15.40;;;;;;;;;;732154;188;914560;-74
2022/11/11 10:00:47;;;;;;;25.93;15.07;;;;;;;;;;733520;188;918583;-74
2022/11/11 10:03:13;;;;;;;22.63;16.03;;;;;;;;;;736314;191;919571;-75
2022/11/11 10:05:39;;;;;;;27.77;16.50;;;;;;;;;;735031;191;928538;-75
2022/11/11 10:08:05;;;;;;;20.23;13.23;;;;;;;;;;739644;188;711055;-74
2022/11/11 10:10:40;;;;;;;21.90;15.20;;;;;;;;;;728877;189;918361;-75
2022/11/11 10:13:04;;;;;;;24.63;15.20;;;;;;;;;;730465;189;919935;-75
2022/11/11 10:15:31;;;;;;;24.10;16.25;;;;;;;;;;733070;190;918914;-75
2022/11/11 10:17:58;;;;;;;26.20;15.27;;;;;;;;;;743508;185;919100;-74
2022/11/11 10:20:25;;;;;;;24.50;15.25;;;;;;;;;;737845;189;920610;-76
2022/11/11 10:22:52;;;;;;;26.10;15.17;;;;;;;;;;723492;185;882124;-75
2022/11/11 10:25:19;;;;;;;29.13;16.80;;;;;;;;;;737446;190;807364;-75
2022/11/11 10:27:44;;;;;;;27.00;16.37;;;;;;;;;;738930;190;712532;-76
2022/11/11 10:30:16;;;;;;;29.00;15.93;;;;;;;;;;740003;188;619554;-75
2022/11/11 10:32:41;;;;;;;23.90;14.00;;;;;;;;;;731985;189;918609;-75
2022/11/11 10:35:11;;;;;;;23.70;14.80;;;;;;;;;;741131;191;816300;-75
2022/11/11 10:37:39;;;;;;;24.20;16.20;;;;;;;;;;734445;190;917712;-74
2022/11/11 10:40:06;;;;;;;27.13;16.70;;;;;;;;;;738438;188;818197;-76
2022/11/11 10:42:32;;;;;;;27.97;16.83;;;;;;;;;;740018;190;818924;-75
2022/11/11 10:44:59;;;;;;;27.63;18.27;;;;;;;;;;741895;187;814228;-75
2022/11/11 10:47:27;;;;;;;31.03;18.53;;;;;;;;;;735242;190;910403;-75
2022/11/11 10:49:55;;;;;;;25.43;18.40;;;;;;;;;;737296;187;817801;-75
2022/11/11 10:52:22;;;;;;;25.83;17.07;;;;;;;;;;738477;189;817237;-74
2022/11/11 10:54:48;;;;;;;31.37;18.70;;;;;;;;;;735306;190;918726;-74
2022/11/11 10:57:15;;;;;;;30.43;19.33;;;;;;;;;;730573;191;912780;-75
2022/11/11 10:59:41;;;;;;;26.83;16.87;;;;;;;;;;725854;189;916911;-74
2022/11/11 11:02:13;;;;;;;32.50;17.30;;;;;;;;;;739684;190;974429;-75
2022/11/11 11:04:41;;;;;;;30.70;19.93;;;;;;;;;;731725;191;915742;-74
2022/11/11 11:07:07;;;;;;;27.33;18.27;;;;;;;;;;750219;184;613068;-74
2022/11/11 11:09:35;;;;;;;29.00;17.40;;;;;;;;;;742387;190;835272;-75
2022/11/11 11:12:07;;;;;;;29.77;20.03;;;;;;;;;;739799;191;817571;-75
2022/11/11 11:14:35;;;;;;;25.97;17.23;;;;;;;;;;730674;188;914596;-74
2022/11/11 11:17:01;;;;;;;29.20;19.17;;;;;;;;;;726592;191;921184;-75
2022/11/11 11:19:26;;;;;;;30.50;18.03;;;;;;;;;;739259;188;918800;-76
2022/11/11 11:21:53;;;;;;;29.00;18.40;;;;;;;;;;734704;190;632217;-75
2022/11/11 11:24:19;;;;;;;24.40;18.60;;;;;;;;;;735806;190;810417;-75
2022/11/11 11:26:45;;;;;;;27.85;19.90;;;;;;;;;;734721;191;918891;-75
2022/11/11 11:29:11;;;;;;;32.03;18.27;;;;;;;;;;738658;191;1031322;-75
2022/11/11 11:31:36;;;;;;;31.70;19.63;;;;;;;;;;734505;191;918762;-76
2022/11/11 11:34:02;;;;;;;26.67;19.17;;;;;;;;;;736845;189;919538;-75
2022/11/11 11:36:28;;;;;;;26.87;18.77;;;;;;;;;;726018;193;822589;-76
2022/11/11 11:38:54;;;;;;;32.73;19.50;;;;;;;;;;727335;191;816152;-76
2022/11/11 11:41:26;;;;;;;29.80;19.60;;;;;;;;;;734624;189;917878;-75
2022/11/11 11:43:52;;;;;;;31.67;19.83;;;;;;;;;;736745;190;917969;-75
2022/11/11 11:46:17;;;;;;;30.07;19.27;;;;;;;;;;736565;190;815561;-75
2022/11/11 11:48:45;;;;;;;29.90;19.80;;;;;;;;;;738734;189;993333;-75
2022/11/11 11:51:12;;;;;;;30.70;20.90;;;;;;;;;;735717;190;916333;-75
2022/11/11 11:53:43;;;;;;;29.53;19.30;;;;;;;;;;743508;187;815724;-75
2022/11/11 11:56:12;;;;;;;27.93;16.23;;;;;;;;;;734538;190;917703;-75
2022/11/11 11:58:55;;;;;;;25.10;18.23;;;;;;;;;;737336;187;826849;-74
2022/11/11 12:01:21;;;;;;;22.40;17.20;;;;;;;;;;738460;190;911509;-75
2022/11/11 12:04:06;;;;;;;26.53;18.03;;;;;;;;;;734297;189;918413;-75
2022/11/11 12:06:50;;;;;;;27.70;19.00;;;;;;;;;;734401;190;1020395;-75
2022/11/11 12:09:21;;;;;;;30.65;18.92;;;;;;;;;;734804;188;919097;-74
2022/11/11 12:11:54;;;;;;;34.40;19.60;;;;;;;;;;747666;186;816416;-74
2022/11/11 12:14:19;;;;;;;28.60;17.83;;;;;;;;;;743086;187;919402;-75
2022/11/11 12:16:46;;;;;;;32.37;20.70;;;;;;;;;;734009;191;921872;-75
2022/11/11 12:19:12;;;;;;;28.87;20.57;;;;;;;;;;733470;188;938020;-75
2022/11/11 12:21:39;;;;;;;28.67;19.10;;;;;;;;;;740069;191;919550;-75
2022/11/11 12:24:06;;;;;;;33.23;20.37;;;;;;;;;;736737;187;816315;-74
2022/11/11 12:26:36;;;;;;;27.33;17.37;;;;;;;;;;717767;193;926809;-74
2022/11/11 12:29:04;;;;;;;30.15;18.87;;;;;;;;;;728216;189;918210;-74
2022/11/11 12:31:30;;;;;;;30.70;20.53;;;;;;;;;;739817;189;816842;-74
2022/11/11 12:34:12;;;;;;;24.97;18.33;;;;;;;;;;733194;189;918488;-74
2022/11/11 12:36:40;;;;;;;31.00;19.50;;;;;;;;;;735898;190;810033;-75
2022/11/11 12:39:06;;;;;;;25.57;18.53;;;;;;;;;;736293;190;811921;-75
2022/11/11 12:41:48;;;;;;;28.55;22.50;;;;;;;;;;731248;191;916828;-75
2022/11/11 12:44:16;;;;;;;29.00;20.52;;;;;;;;;;728675;191;913312;-74
2022/11/11 12:46:46;;;;;;;29.73;20.63;;;;;;;;;;745425;188;816302;-74
2022/11/11 12:49:12;;;;;;;31.43;21.57;;;;;;;;;;730011;190;916144;-75
2022/11/11 12:51:44;;;;;;;28.03;19.80;;;;;;;;;;730568;190;927596;-75
2022/11/11 12:54:14;;;;;;;27.67;18.90;;;;;;;;;;733462;190;825373;-75
2022/11/11 12:56:41;;;;;;;31.77;21.20;;;;;;;;;;738579;189;812780;-75
2022/11/11 12:59:09;;;;;;;33.33;22.30;;;;;;;;;;731876;190;919540;-75
2022/11/11 13:01:55;;;;;;;29.73;20.27;;;;;;;;;;734046;190;908189;-74
2022/11/11 13:04:22;;;;;;;30.03;19.77;;;;;;;;;;727610;190;816560;-74
2022/11/11 13:06:53;;;;;;;29.30;22.03;;;;;;;;;;737619;185;898202;-75
2022/11/11 13:09:30;;;;;;;37.23;22.37;;;;;;;;;;730462;190;919745;-75
2022/11/11 13:12:13;;;;;;;33.17;22.20;;;;;;;;;;738068;190;919028;-74
2022/11/11 13:14:42;;;;;;;36.27;24.40;;;;;;;;;;738898;189;919508;-75
2022/11/11 13:17:08;;;;;;;34.20;21.97;;;;;;;;;;727103;191;918490;-75
2022/11/11 13:19:35;;;;;;;31.00;23.25;;;;;;;;;;730811;189;1021148;-75
2022/11/11 13:22:02;;;;;;;33.17;22.60;;;;;;;;;;737527;190;920762;-74
2022/11/11 13:24:30;;;;;;;35.60;22.10;;;;;;;;;;732941;188;919301;-75
2022/11/11 13:26:55;;;;;;;32.97;22.10;;;;;;;;;;728890;190;914472;-75
2022/11/11 13:29:39;;;;;;;34.40;22.47;;;;;;;;;;728559;188;918464;-75
2022/11/11 13:32:05;;;;;;;36.60;23.53;;;;;;;;;;729372;190;917861;-75
2022/11/11 13:34:33;;;;;;;34.10;22.47;;;;;;;;;;738853;189;817498;-75
2022/11/11 13:36:56;;;;;;;42.13;23.40;;;;;;;;;;705860;198;931432;-75
2022/11/11 13:39:31;;;;;;;36.73;23.33;;;;;;;;;;733567;188;918778;-75
2022/11/11 13:41:57;;;;;;;43.10;26.33;;;;;;;;;;729539;190;936508;-75
2022/11/11 13:44:23;;;;;;;40.63;22.73;;;;;;;;;;736591;188;815751;-74
2022/11/11 13:46:49;;;;;;;37.73;22.70;;;;;;;;;;735415;191;815339;-74
2022/11/11 13:49:20;;;;;;;42.10;22.73;;;;;;;;;;732066;191;918569;-73
2022/11/11 13:51:45;;;;;;;34.53;22.50;;;;;;;;;;738345;190;873487;-74
2022/11/11 13:54:17;;;;;;;34.20;23.30;;;;;;;;;;730928;191;892726;-74
2022/11/11 13:56:43;;;;;;;33.43;22.90;;;;;;;;;;735378;189;888490;-75
2022/11/11 13:59:15;;;;;;;39.43;23.63;;;;;;;;;;734479;188;915078;-74
2022/11/11 14:01:41;;;;;;;33.80;21.33;;;;;;;;;;736540;190;917596;-75
2022/11/11 14:04:06;;;;;;;29.70;20.17;;;;;;;;;;732199;187;939313;-74
2022/11/11 14:06:36;;;;;;;33.80;21.27;;;;;;;;;;731502;190;930544;-74
2022/11/11 14:09:02;;;;;;;36.60;23.43;;;;;;;;;;727784;191;917421;-74
2022/11/11 14:11:29;;;;;;;39.60;24.03;;;;;;;;;;738963;189;921876;-75
2022/11/11 14:13:54;;;;;;;33.07;23.20;;;;;;;;;;731317;188;1023541;-75
2022/11/11 14:16:26;;;;;;;40.13;25.77;;;;;;;;;;725709;191;919565;-74
2022/11/11 14:18:52;;;;;;;34.50;22.50;;;;;;;;;;726437;193;903073;-74
2022/11/11 14:21:24;;;;;;;42.37;23.47;;;;;;;;;;705006;198;923430;-75
2022/11/11 14:23:53;;;;;;;35.67;22.87;;;;;;;;;;715803;194;919370;-75
2022/11/11 14:26:20;;;;;;;35.90;24.50;;;;;;;;;;737415;190;920602;-75
2022/11/11 14:28:50;;;;;;;40.00;24.33;;;;;;;;;;738705;191;817182;-74
2022/11/11 14:31:17;;;;;;;34.70;22.50;;;;;;;;;;741421;190;808029;-75
2022/11/11 14:33:48;;;;;;;31.90;21.97;;;;;;;;;;734921;188;918631;-74
2022/11/11 14:36:20;;;;;;;32.00;22.07;;;;;;;;;;723349;191;924519;-74
2022/11/11 14:38:46;;;;;;;40.13;23.90;;;;;;;;;;728299;190;919555;-73
2022/11/11 14:41:18;;;;;;;38.90;23.90;;;;;;;;;;738390;190;919335;-74
2022/11/11 14:43:43;;;;;;;39.23;22.97;;;;;;;;;;735757;188;919446;-74
2022/11/11 14:46:09;;;;;;;33.00;21.98;;;;;;;;;;734690;191;921725;-74
2022/11/11 14:48:41;;;;;;;35.10;22.77;;;;;;;;;;739807;190;958269;-74
2022/11/11 14:51:07;;;;;;;37.50;23.87;;;;;;;;;;739764;190;914519;-74
2022/11/11 14:53:33;;;;;;;51.23;24.60;;;;;;;;;;729125;190;913982;-74
2022/11/11 14:55:59;;;;;;;41.57;25.60;;;;;;;;;;730808;191;919528;-74
2022/11/11 14:58:25;;;;;;;40.40;23.50;;;;;;;;;;735771;188;896201;-73
2022/11/11 15:01:06;;;;;;;43.37;27.20;;;;;;;;;;733736;190;922132;-74
2022/11/11 15:03:43;;;;;;;49.73;27.77;;;;;;;;;;732264;188;913147;-74
2022/11/11 15:06:22;;;;;;;56.13;28.57;;;;;;;;;;730730;190;919365;-74
2022/11/11 15:08:50;;;;;;;44.53;30.23;;;;;;;;;;732622;189;1012774;-75
2022/11/11 15:11:21;;;;;;;41.90;26.10;;;;;;;;;;734383;189;918769;-74